createdAt,value
2022-08-05T00:01:36.102Z,59.78
2022-08-05T00:04:08.378Z,59.69
2022-08-05T00:06:36.732Z,59.75
2022-08-05T00:09:12.861Z,59.73
2022-08-05T00:11:48.781Z,59.69
2022-08-05T00:14:27.781Z,59.58
2022-08-05T00:16:57.917Z,59.54
2022-08-05T00:19:32.900Z,59.41
2022-08-05T00:22:03.263Z,59.33
2022-08-05T00:24:32.322Z,59.39
2022-08-05T00:27:04.552Z,59.43
2022-08-05T00:29:38.482Z,59.36
2022-08-05T00:32:12.233Z,59.49
2022-08-05T00:35:04.789Z,59.40
2022-08-05T00:37:51.078Z,59.39
2022-08-05T00:40:27.071Z,59.58
2022-08-05T00:43:00.560Z,59.42
2022-08-05T00:45:38.294Z,60.00
2022-08-05T00:48:09.420Z,60.27
2022-08-05T00:50:41.340Z,60.26
2022-08-05T00:54:01.026Z,60.32
2022-08-05T00:56:01.281Z,60.51
2022-08-05T00:58:29.132Z,60.94
2022-08-05T01:00:57.308Z,65.01
2022-08-05T01:03:33.252Z,65.19
2022-08-05T01:06:02.615Z,60.12
2022-08-05T01:08:43.418Z,57.07
2022-08-05T01:11:36.712Z,57.01
2022-08-05T01:14:50.411Z,57.61
2022-08-05T01:17:40.343Z,58.59
2022-08-05T01:20:34.228Z,59.47
2022-08-05T01:23:24.324Z,63.60
2022-08-05T01:26:38.337Z,64.44
2022-08-05T01:29:17.351Z,59.76
2022-08-05T01:31:59.509Z,57.94
2022-08-05T01:34:36.643Z,58.40
2022-08-05T01:37:18.002Z,59.10
2022-08-05T01:39:59.171Z,59.59
2022-08-05T01:42:34.077Z,62.64
2022-08-05T01:45:03.536Z,64.14
2022-08-05T01:47:39.674Z,62.62
2022-08-05T01:50:28.871Z,59.38
2022-08-05T01:53:04.869Z,57.34
2022-08-05T01:55:39.019Z,57.75
2022-08-05T01:58:15.597Z,58.41
2022-08-05T02:00:50.518Z,59.05
2022-08-05T02:03:34.287Z,59.66
2022-08-05T02:06:37.290Z,62.51
2022-08-05T02:08:57.847Z,64.52
2022-08-05T02:11:47.771Z,62.43
2022-08-05T02:14:32.462Z,58.67
2022-08-05T02:18:30.646Z,57.09
2022-08-05T02:21:15.048Z,57.42
2022-08-05T02:23:49.116Z,58.62
2022-08-05T02:26:26.469Z,59.75
2022-08-05T02:28:58.161Z,62.92
2022-08-05T02:31:34.973Z,64.31
2022-08-05T02:34:11.941Z,62.48
2022-08-05T02:36:49.289Z,59.30
2022-08-05T02:39:21.501Z,57.67
2022-08-05T02:41:58.262Z,58.12
2022-08-05T02:44:32.556Z,58.94
2022-08-05T02:47:02.696Z,59.88
2022-08-05T02:49:40.638Z,62.93
2022-08-05T02:52:29.488Z,64.44
2022-08-05T02:55:01.801Z,63.31
2022-08-05T02:58:10.842Z,59.78
2022-08-05T03:00:23.229Z,57.65
2022-08-05T03:02:55.575Z,58.36
2022-08-05T03:06:55.446Z,59.39
2022-08-05T03:08:12.453Z,62.30
2022-08-05T03:11:53.108Z,63.66
2022-08-05T03:13:51.412Z,62.57
2022-08-05T03:16:22.595Z,59.31
2022-08-05T03:18:51.433Z,57.76
2022-08-05T03:21:19.987Z,58.51
2022-08-05T03:23:50.170Z,59.11
2022-08-05T03:26:31.568Z,60.11
2022-08-05T03:29:00.572Z,63.05
2022-08-05T03:31:57.006Z,63.77
2022-08-05T03:34:19.460Z,62.58
2022-08-05T03:36:52.412Z,59.04
2022-08-05T03:39:27.286Z,57.96
2022-08-05T03:41:56.878Z,58.64
2022-08-05T03:44:25.590Z,59.58
2022-08-05T03:46:57.158Z,62.57
2022-08-05T03:49:31.153Z,63.55
2022-08-05T03:52:37.149Z,61.73
2022-08-05T03:56:06.049Z,57.44
2022-08-05T03:58:16.692Z,55.81
2022-08-05T04:00:51.526Z,55.57
2022-08-05T04:03:28.611Z,55.00
2022-08-05T04:05:59.254Z,54.14
2022-08-05T04:08:36.532Z,53.39
2022-08-05T04:11:08.725Z,51.63
2022-08-05T04:13:49.727Z,50.03
2022-08-05T04:16:24.948Z,48.37
2022-08-05T04:18:54.892Z,46.77
2022-08-05T04:22:10.079Z,45.44
2022-08-05T04:24:19.215Z,44.38
2022-08-05T04:26:51.036Z,42.93
2022-08-05T04:29:18.954Z,41.71
2022-08-05T04:31:50.864Z,41.09
2022-08-05T04:34:32.420Z,40.44
2022-08-05T04:37:03.370Z,39.49
2022-08-05T04:39:35.503Z,38.61
2022-08-05T04:42:04.226Z,38.11
2022-08-05T04:44:32.171Z,37.54
2022-08-05T04:47:09.944Z,37.05
2022-08-05T04:50:01.727Z,36.88
2022-08-05T04:52:29.172Z,36.75
2022-08-05T04:55:09.594Z,36.15
2022-08-05T04:57:48.019Z,35.95
2022-08-05T05:00:23.455Z,35.51
2022-08-05T05:02:52.110Z,35.17
2022-08-05T05:05:26.185Z,34.79
2022-08-05T05:08:05.482Z,34.74
2022-08-05T05:10:55.996Z,34.41
2022-08-05T05:13:24.462Z,34.18
2022-08-05T05:15:57.560Z,33.72
2022-08-05T05:18:33.356Z,33.26
2022-08-05T05:21:03.920Z,32.74
2022-08-05T05:23:39.198Z,32.50
2022-08-05T05:26:28.816Z,32.21
2022-08-05T05:29:00.925Z,31.57
2022-08-05T05:34:01.920Z,31.03
2022-08-05T05:36:32.142Z,30.96
2022-08-05T05:39:00.355Z,31.07
2022-08-05T05:41:40.832Z,31.43
2022-08-05T05:44:35.474Z,32.03
2022-08-05T05:47:04.316Z,33.06
2022-08-05T05:49:33.312Z,34.03
2022-08-05T05:52:07.336Z,34.93
2022-08-05T05:54:50.991Z,36.15
2022-08-05T05:57:20.176Z,37.44
2022-08-05T05:59:48.973Z,38.48
2022-08-05T06:02:17.333Z,39.35
2022-08-05T06:05:03.482Z,40.51
2022-08-05T06:07:42.024Z,41.37
2022-08-05T06:10:11.125Z,42.00
2022-08-05T06:12:42.637Z,42.55
2022-08-05T06:15:24.181Z,43.37
2022-08-05T06:17:54.767Z,43.77
2022-08-05T06:20:23.314Z,44.17
2022-08-05T06:22:51.164Z,44.43
2022-08-05T06:25:25.064Z,44.65
2022-08-05T06:28:12.511Z,44.84
2022-08-05T06:30:49.521Z,44.88
2022-08-05T06:33:19.408Z,45.19
2022-08-05T06:36:07.576Z,45.56
2022-08-05T06:38:38.360Z,45.80
2022-08-05T06:41:15.009Z,45.72
2022-08-05T06:43:59.755Z,45.70
2022-08-05T06:46:30.147Z,45.56
2022-08-05T06:49:01.297Z,45.35
2022-08-05T06:51:31.472Z,45.08
2022-08-05T06:54:04.909Z,45.05
2022-08-05T06:56:34.519Z,45.11
2022-08-05T06:59:09.540Z,44.94
2022-08-05T07:01:40.591Z,44.88
2022-08-05T07:04:11.217Z,44.85
2022-08-05T07:06:45.285Z,44.50
2022-08-05T07:09:13.979Z,44.19
2022-08-05T07:11:49.382Z,44.01
2022-08-05T07:14:38.311Z,43.86
2022-08-05T07:18:00.692Z,43.92
2022-08-05T07:22:45.715Z,43.38
2022-08-05T07:25:55.429Z,42.80
2022-08-05T07:28:09.687Z,42.60
2022-08-05T07:30:43.206Z,42.43
2022-08-05T07:33:16.036Z,41.98
2022-08-05T07:36:04.135Z,42.21
2022-08-05T07:38:43.758Z,42.08
2022-08-05T07:42:12.976Z,41.98
2022-08-05T07:44:18.775Z,41.49
2022-08-05T07:46:49.405Z,41.20
2022-08-05T07:49:19.696Z,40.30
2022-08-05T07:51:54.514Z,40.29
2022-08-05T07:54:31.355Z,40.46
2022-08-05T07:57:17.720Z,39.91
2022-08-05T07:59:52.266Z,39.21
2022-08-05T08:02:30.907Z,38.70
2022-08-05T08:05:11.672Z,38.67
2022-08-05T08:08:00.024Z,38.72
2022-08-05T08:10:29.328Z,38.44
2022-08-05T08:12:59.048Z,37.73
2022-08-05T08:16:34.352Z,37.54
2022-08-05T08:18:20.912Z,37.28
2022-08-05T08:21:03.019Z,37.31
2022-08-05T08:24:02.489Z,36.89
2022-08-05T08:26:29.829Z,36.12
2022-08-05T08:29:09.755Z,35.85
2022-08-05T08:31:52.570Z,36.36
2022-08-05T08:34:30.589Z,36.20
2022-08-05T08:37:04.893Z,36.09
2022-08-05T08:39:37.418Z,36.37
2022-08-05T08:42:34.085Z,36.78
2022-08-05T08:45:23.173Z,36.36
2022-08-05T08:48:07.113Z,35.68
2022-08-05T08:51:22.115Z,34.55
2022-08-05T08:53:44.385Z,34.77
2022-08-05T08:56:14.953Z,34.64
2022-08-05T08:58:47.979Z,34.35
2022-08-05T09:01:19.664Z,34.43
2022-08-05T09:03:58.724Z,34.64
2022-08-05T09:06:30.964Z,34.37
2022-08-05T09:09:02.237Z,33.57
2022-08-05T09:11:53.770Z,33.74
2022-08-05T09:14:58.096Z,33.76
2022-08-05T09:17:40.222Z,33.60
2022-08-05T09:20:04.819Z,33.34
2022-08-05T09:23:19.583Z,32.89
2022-08-05T09:26:03.156Z,32.40
2022-08-05T09:28:34.859Z,32.48
2022-08-05T09:31:43.806Z,31.54
2022-08-05T09:34:10.358Z,32.17
2022-08-05T09:36:55.961Z,32.30
2022-08-05T09:39:41.450Z,32.08
2022-08-05T09:42:28.271Z,31.45
2022-08-05T09:45:17.907Z,31.28
2022-08-05T09:47:55.398Z,31.15
2022-08-05T09:50:38.849Z,31.34
2022-08-05T09:53:22.696Z,31.26
2022-08-05T09:56:05.033Z,31.26
2022-08-05T09:58:42.077Z,31.15
2022-08-05T10:01:14.947Z,30.85
2022-08-05T10:04:19.649Z,30.54
2022-08-05T10:06:59.852Z,30.61
2022-08-05T10:09:44.974Z,30.68
2022-08-05T10:12:18.364Z,30.50
2022-08-05T10:15:20.943Z,30.59
2022-08-05T10:18:07.441Z,30.65
2022-08-05T10:20:56.992Z,31.31
2022-08-05T10:23:56.439Z,31.49
2022-08-05T10:26:24.203Z,31.13
2022-08-05T10:29:00.238Z,30.20
2022-08-05T10:32:55.165Z,29.32
2022-08-05T10:34:16.790Z,28.88
2022-08-05T10:36:48.122Z,28.59
2022-08-05T10:39:59.525Z,29.00
2022-08-05T10:42:33.761Z,29.34
2022-08-05T10:45:21.510Z,29.69
2022-08-05T10:48:29.779Z,29.36
2022-08-05T10:51:00.750Z,29.31
2022-08-05T10:53:55.738Z,29.44
2022-08-05T10:56:27.343Z,29.45
2022-08-05T10:58:58.410Z,29.13
2022-08-05T11:01:55.274Z,29.05
2022-08-05T11:04:48.285Z,28.80
2022-08-05T11:07:18.953Z,28.52
2022-08-05T11:10:29.221Z,28.34
2022-08-05T11:13:01.344Z,28.59
2022-08-05T11:15:59.173Z,28.24
2022-08-05T11:18:39.058Z,28.20
2022-08-05T11:21:40.892Z,27.47
2022-08-05T11:24:30.176Z,27.64
2022-08-05T11:27:37.060Z,28.11
2022-08-05T11:30:22.795Z,28.26
2022-08-05T11:33:44.066Z,27.98
2022-08-05T11:36:34.541Z,28.13
2022-08-05T11:39:09.718Z,28.02
2022-08-05T11:42:01.183Z,27.84
2022-08-05T11:44:53.075Z,27.97
2022-08-05T11:47:48.452Z,27.92
2022-08-05T11:50:14.274Z,27.88
2022-08-05T11:52:46.212Z,28.11
2022-08-05T11:55:21.224Z,28.30
2022-08-05T11:58:11.053Z,28.33
2022-08-05T12:00:41.530Z,28.47
2022-08-05T12:03:32.054Z,28.47
2022-08-05T12:06:06.101Z,28.31
2022-08-05T12:08:49.871Z,28.25
2022-08-05T12:11:28.230Z,28.21
2022-08-05T12:14:10.400Z,28.05
2022-08-05T12:16:45.284Z,27.81
2022-08-05T12:20:27.120Z,27.45
2022-08-05T12:22:09.550Z,27.59
2022-08-05T12:24:49.556Z,27.79
2022-08-05T12:27:25.432Z,27.65
2022-08-05T12:30:15.592Z,27.42
2022-08-05T12:32:54.053Z,27.15
2022-08-05T12:35:28.372Z,27.39
2022-08-05T12:38:08.548Z,27.41
2022-08-05T12:40:38.985Z,27.28
2022-08-05T12:43:12.472Z,27.26
2022-08-05T12:45:56.864Z,27.35
2022-08-05T12:48:32.249Z,27.58
2022-08-05T12:51:21.593Z,27.37
2022-08-05T12:53:55.644Z,27.69
2022-08-05T12:56:35.440Z,27.75
2022-08-05T12:59:27.621Z,27.55
2022-08-05T13:02:09.935Z,27.57
2022-08-05T13:04:54.798Z,27.69
2022-08-05T13:07:57.744Z,27.37
2022-08-05T13:10:19.556Z,27.45
2022-08-05T13:12:57.299Z,27.72
2022-08-05T13:15:41.749Z,27.92
2022-08-05T13:18:20.546Z,27.63
2022-08-05T13:20:50.138Z,27.65
2022-08-05T13:23:22.482Z,27.71
2022-08-05T13:25:59.488Z,27.51
2022-08-05T13:28:32.251Z,27.42
2022-08-05T13:31:10.879Z,27.18
2022-08-05T13:34:21.508Z,27.09
2022-08-05T13:36:30.871Z,27.20
2022-08-05T13:38:58.890Z,26.69
2022-08-05T13:41:36.100Z,26.64
2022-08-05T13:44:06.595Z,26.86
2022-08-05T13:47:01.810Z,26.91
2022-08-05T13:49:35.306Z,27.07
2022-08-05T13:52:15.041Z,27.15
2022-08-05T13:54:43.233Z,27.40
2022-08-05T13:57:25.254Z,27.71
2022-08-05T13:59:59.195Z,28.04
2022-08-05T14:02:29.851Z,28.30
2022-08-05T14:05:11.598Z,28.33
2022-08-05T14:07:59.657Z,27.85
2022-08-05T14:10:32.325Z,27.82
2022-08-05T14:13:03.104Z,27.83
2022-08-05T14:16:04.490Z,27.77
2022-08-05T14:18:23.523Z,27.91
2022-08-05T14:20:56.456Z,28.05
2022-08-05T14:23:36.669Z,27.94
2022-08-05T14:26:38.328Z,27.91
2022-08-05T14:28:59.213Z,27.93
2022-08-05T14:32:03.227Z,27.50
2022-08-05T14:34:18.998Z,27.34
2022-08-05T14:36:53.530Z,27.60
2022-08-05T14:39:24.436Z,27.71
2022-08-05T14:42:19.654Z,27.94
2022-08-05T14:44:46.020Z,27.82
2022-08-05T14:47:14.417Z,27.77
2022-08-05T14:49:59.636Z,27.96
2022-08-05T14:52:51.515Z,27.89
2022-08-05T14:55:38.620Z,27.92
2022-08-05T14:58:11.622Z,28.04
2022-08-05T15:00:57.921Z,28.22
2022-08-05T15:03:33.562Z,28.33
2022-08-05T15:06:14.935Z,28.36
2022-08-05T15:09:01.295Z,28.55
2022-08-05T15:11:51.885Z,28.89
2022-08-05T15:14:35.862Z,29.01
2022-08-05T15:17:44.630Z,29.17
2022-08-05T15:19:58.095Z,29.27
2022-08-05T15:22:27.079Z,29.38
2022-08-05T15:24:59.375Z,29.26
2022-08-05T15:27:35.896Z,29.26
2022-08-05T15:30:04.958Z,29.33
2022-08-05T15:32:33.358Z,29.22
2022-08-05T15:35:04.195Z,29.31
2022-08-05T15:38:33.186Z,29.35
2022-08-05T15:40:58.614Z,29.40
2022-08-05T15:43:20.536Z,29.45
2022-08-05T15:46:00.347Z,29.10
2022-08-05T15:48:30.186Z,29.24
2022-08-05T15:51:01.519Z,29.23
2022-08-05T15:53:38.364Z,29.34
2022-08-05T15:56:20.441Z,29.41
2022-08-05T15:58:49.203Z,29.51
2022-08-05T16:01:20.082Z,29.71
2022-08-05T16:03:50.728Z,29.96
2022-08-05T16:06:20.924Z,30.00
2022-08-05T16:08:55.266Z,30.04
2022-08-05T16:11:42.430Z,30.03
2022-08-05T16:14:17.472Z,30.01
2022-08-05T16:16:47.405Z,29.99
2022-08-05T16:22:58.459Z,29.98
2022-08-05T16:25:32.148Z,30.22
2022-08-05T16:28:09.551Z,30.33
2022-08-05T16:30:42.801Z,30.61
2022-08-05T16:33:13.351Z,30.86
2022-08-05T16:35:45.242Z,30.97
2022-08-05T16:38:27.919Z,30.90
2022-08-05T16:41:01.506Z,30.80
2022-08-05T16:43:34.782Z,30.67
2022-08-05T16:46:23.567Z,30.56
2022-08-05T16:48:55.653Z,30.32
2022-08-05T16:51:24.933Z,30.01
2022-08-05T16:54:03.203Z,29.92
2022-08-05T16:56:41.723Z,29.83
2022-08-05T16:59:14.698Z,29.76
2022-08-05T17:01:53.745Z,29.94
2022-08-05T17:04:28.376Z,30.28
2022-08-05T17:07:11.418Z,30.71
2022-08-05T17:09:57.306Z,31.15
2022-08-05T17:12:50.463Z,31.75
2022-08-05T17:15:19.658Z,32.06
2022-08-05T17:17:54.838Z,32.45
2022-08-05T17:20:25.078Z,32.97
2022-08-05T17:22:55.773Z,33.53
2022-08-05T17:25:33.859Z,34.58
2022-08-05T17:28:15.468Z,35.94
2022-08-05T17:30:52.190Z,37.26
2022-08-05T17:33:21.613Z,38.38
2022-08-05T17:36:07.465Z,39.72
2022-08-05T17:38:47.336Z,40.70
2022-08-05T17:42:17.651Z,42.05
2022-08-05T17:44:26.620Z,43.54
2022-08-05T17:47:05.631Z,45.03
2022-08-05T17:50:00.157Z,47.04
2022-08-05T17:52:26.160Z,47.96
2022-08-05T17:54:54.642Z,48.55
2022-08-05T17:57:25.907Z,49.52
2022-08-05T18:00:09.114Z,50.22
2022-08-05T18:02:47.082Z,51.23
2022-08-05T18:05:16.969Z,51.84
2022-08-05T18:07:46.534Z,51.80
2022-08-05T18:10:21.356Z,52.54
2022-08-05T18:12:50.353Z,53.22
2022-08-05T18:15:18.845Z,53.54
2022-08-05T18:17:58.714Z,53.55
2022-08-05T18:20:32.526Z,53.30
2022-08-05T18:23:11.527Z,54.61
2022-08-05T18:25:45.068Z,54.56
2022-08-05T18:28:16.186Z,55.41
2022-08-05T18:30:52.726Z,56.16
2022-08-05T18:33:22.741Z,56.56
2022-08-05T18:36:03.500Z,57.05
2022-08-05T18:38:36.445Z,57.53
2022-08-05T18:41:57.703Z,58.19
2022-08-05T18:43:57.014Z,59.69
2022-08-05T18:46:34.559Z,61.38
2022-08-05T18:49:23.479Z,61.33
2022-08-05T18:52:17.467Z,59.32
2022-08-05T18:55:06.202Z,60.01
2022-08-05T18:57:50.006Z,63.10
2022-08-05T19:00:27.122Z,62.98
2022-08-05T19:03:03.786Z,62.39
2022-08-05T19:06:12.384Z,62.70
2022-08-05T19:08:30.458Z,61.85
2022-08-05T19:11:02.804Z,61.31
2022-08-05T19:13:36.085Z,61.88
2022-08-05T19:16:24.339Z,61.47
2022-08-05T19:18:56.563Z,58.63
2022-08-05T19:21:34.364Z,61.39
2022-08-05T19:24:09.001Z,62.64
2022-08-05T19:26:43.961Z,62.12
2022-08-05T19:29:26.580Z,61.56
2022-08-05T19:32:11.778Z,60.94
2022-08-05T19:34:54.290Z,60.62
2022-08-05T19:37:29.828Z,60.27
2022-08-05T19:40:10.104Z,59.95
2022-08-05T19:42:39.197Z,59.46
2022-08-05T19:45:08.393Z,62.35
2022-08-05T19:47:42.456Z,63.29
2022-08-05T19:50:12.134Z,63.22
2022-08-05T19:52:41.019Z,62.72
2022-08-05T19:56:15.163Z,62.66
2022-08-05T19:58:04.126Z,62.47
2022-08-05T20:00:45.990Z,62.45
2022-08-05T20:03:14.313Z,62.84
2022-08-05T20:05:49.792Z,63.15
2022-08-05T20:08:19.838Z,63.85
2022-08-05T20:10:49.567Z,63.82
2022-08-05T20:13:30.341Z,63.93
2022-08-05T20:16:07.482Z,64.01
2022-08-05T20:18:36.254Z,64.51
2022-08-05T20:21:07.350Z,64.98
2022-08-05T20:23:50.367Z,65.45
2022-08-05T20:26:25.291Z,65.95
2022-08-05T20:28:57.539Z,66.81
2022-08-05T20:31:43.049Z,65.92
2022-08-05T20:34:17.648Z,65.25
2022-08-05T20:36:45.578Z,64.91
2022-08-05T20:39:16.665Z,65.03
2022-08-05T20:41:47.899Z,65.48
2022-08-05T20:44:30.521Z,65.68
2022-08-05T20:47:04.163Z,65.90
2022-08-05T20:49:37.947Z,66.75
2022-08-05T20:52:10.679Z,66.38
2022-08-05T20:54:43.350Z,66.55
2022-08-05T20:57:43.023Z,65.88
2022-08-05T21:00:40.422Z,66.06
2022-08-05T21:03:07.290Z,66.12
2022-08-05T21:05:53.925Z,66.44
2022-08-05T21:08:41.340Z,66.10
2022-08-05T21:11:12.697Z,66.49
2022-08-05T21:13:56.005Z,66.76
2022-08-05T21:16:29.641Z,66.04
2022-08-05T21:19:01.372Z,66.05
2022-08-05T21:21:44.006Z,66.25
2022-08-05T21:24:19.707Z,66.83
2022-08-05T21:26:53.395Z,66.97
2022-08-05T21:29:31.836Z,67.10
2022-08-05T21:32:02.738Z,67.25
2022-08-05T21:34:31.636Z,67.44
2022-08-05T21:37:00.999Z,67.25
2022-08-05T21:39:29.978Z,67.30
2022-08-05T21:42:01.184Z,66.83
2022-08-05T21:44:32.006Z,66.91
2022-08-05T21:47:00.629Z,66.48
2022-08-05T21:49:59.450Z,66.44
2022-08-05T21:52:27.340Z,66.13
2022-08-05T21:55:06.152Z,66.17
2022-08-05T21:57:37.501Z,65.94
2022-08-05T22:00:12.453Z,65.45
2022-08-05T22:02:41.623Z,66.02
2022-08-05T22:05:12.476Z,66.10
2022-08-05T22:07:58.735Z,65.84
2022-08-05T22:10:28.125Z,65.19
2022-08-05T22:12:59.152Z,64.71
2022-08-05T22:16:00.851Z,65.13
2022-08-05T22:18:26.527Z,65.08
2022-08-05T22:20:55.879Z,64.72
2022-08-05T22:24:01.969Z,64.77
2022-08-05T22:26:51.839Z,64.76
2022-08-05T22:29:26.541Z,63.71
2022-08-05T22:32:02.905Z,62.99
2022-08-05T22:34:33.739Z,63.10
2022-08-05T22:37:03.932Z,62.84
2022-08-05T22:39:34.750Z,62.60
2022-08-05T22:42:12.683Z,62.91
2022-08-05T22:44:53.512Z,62.64
2022-08-05T22:47:29.684Z,63.10
2022-08-05T22:50:20.886Z,63.61
2022-08-05T22:52:51.415Z,62.77
2022-08-05T22:55:23.699Z,62.85
2022-08-05T22:57:53.359Z,63.13
2022-08-05T23:00:23.773Z,63.62
2022-08-05T23:02:53.625Z,64.10
2022-08-05T23:05:23.077Z,64.04
2022-08-05T23:07:51.873Z,64.06
2022-08-05T23:10:24.049Z,64.15
2022-08-05T23:12:55.547Z,64.17
2022-08-05T23:15:29.804Z,64.33
2022-08-05T23:18:06.138Z,64.05
2022-08-05T23:20:39.888Z,64.19
2022-08-05T23:23:11.218Z,64.26
2022-08-05T23:25:52.764Z,63.70
2022-08-05T23:28:26.897Z,63.23
2022-08-05T23:31:02.205Z,63.05
2022-08-05T23:34:06.243Z,63.03
2022-08-05T23:36:39.728Z,62.86
2022-08-05T23:39:17.219Z,62.95
2022-08-05T23:41:54.003Z,63.35
2022-08-05T23:44:25.127Z,63.50
2022-08-05T23:46:56.095Z,63.22
2022-08-05T23:49:35.980Z,63.20
2022-08-05T23:52:25.275Z,63.04
2022-08-05T23:54:55.907Z,63.48
2022-08-05T23:57:28.225Z,63.61
